Time;durP1;ratioP1;P1;durP2;ratioP2;P2;SDS_P1;SDS_P2;PMS_P1;PMS_P2;Temp;Humidity;BMP_temperature;BMP_pressure;BME280_temperature;BME280_humidity;BME280_pressure;Samples;Min_cycle;Max_cycle;Signal;HPM_P1;HPM_P2
2022/10/23 00:01:00;;;;;;;8.65;7.43;;;;;;;;;;6120325;23;20041;-77
2022/10/23 00:03:26;;;;;;;9.48;7.63;;;;;;;;;;6119764;23;20056;-78
2022/10/23 00:05:52;;;;;;;10.82;8.10;;;;;;;;;;6118499;23;20419;-78
2022/10/23 00:08:18;;;;;;;9.05;8.13;;;;;;;;;;6119394;23;20005;-78
2022/10/23 00:10:45;;;;;;;10.57;7.45;;;;;;;;;;6119488;23;20065;-78
2022/10/23 00:13:11;;;;;;;9.80;7.90;;;;;;;;;;6119875;23;20077;-78
2022/10/23 00:15:37;;;;;;;10.18;7.93;;;;;;;;;;6117612;23;20014;-78
2022/10/23 00:18:04;;;;;;;9.23;7.63;;;;;;;;;;6119185;23;20009;-78
2022/10/23 00:20:30;;;;;;;9.48;7.82;;;;;;;;;;6119718;23;20088;-78
2022/10/23 00:22:56;;;;;;;9.82;7.07;;;;;;;;;;6093172;23;20010;-78
2022/10/23 00:25:22;;;;;;;8.98;7.57;;;;;;;;;;6119743;23;20002;-78
2022/10/23 00:27:48;;;;;;;9.10;7.70;;;;;;;;;;6117379;23;20005;-78
2022/10/23 00:30:15;;;;;;;9.68;7.80;;;;;;;;;;6119155;23;20048;-78
2022/10/23 00:32:41;;;;;;;9.00;7.63;;;;;;;;;;6119369;23;20029;-78
2022/10/23 00:35:07;;;;;;;10.32;7.25;;;;;;;;;;6119058;23;20010;-77
2022/10/23 00:37:33;;;;;;;8.82;7.05;;;;;;;;;;6119276;23;20045;-77
2022/10/23 00:39:59;;;;;;;8.93;7.00;;;;;;;;;;6118806;23;20006;-77
2022/10/23 00:42:25;;;;;;;9.13;6.68;;;;;;;;;;6091339;23;20021;-77
2022/10/23 00:44:51;;;;;;;10.57;7.15;;;;;;;;;;6093619;23;20006;-77
2022/10/23 00:47:18;;;;;;;8.23;6.70;;;;;;;;;;6093534;23;20025;-77
2022/10/23 00:49:44;;;;;;;8.20;6.63;;;;;;;;;;6118932;23;20431;-78
2022/10/23 00:52:12;;;;;;;8.70;6.82;;;;;;;;;;6119202;23;20002;-78
2022/10/23 00:54:40;;;;;;;8.77;7.28;;;;;;;;;;6115849;23;20016;-78
2022/10/23 00:57:07;;;;;;;10.30;7.75;;;;;;;;;;6085855;23;20054;-77
2022/10/23 00:59:34;;;;;;;8.43;7.57;;;;;;;;;;6094548;23;20022;-79
2022/10/23 01:02:00;;;;;;;9.27;6.85;;;;;;;;;;6113372;23;20092;-77
2022/10/23 01:04:27;;;;;;;10.38;7.63;;;;;;;;;;6113427;23;20006;-78
2022/10/23 01:07:12;;;;;;;9.68;7.07;;;;;;;;;;6111873;23;20012;-78
2022/10/23 01:10:07;;;;;;;10.10;7.57;;;;;;;;;;6113219;23;20013;-78
2022/10/23 01:12:42;;;;;;;11.30;7.43;;;;;;;;;;6090975;23;20036;-77
2022/10/23 01:15:16;;;;;;;9.80;7.10;;;;;;;;;;6113609;23;20116;-78
2022/10/23 01:17:45;;;;;;;8.65;6.95;;;;;;;;;;6112793;23;20002;-77
2022/10/23 01:20:17;;;;;;;10.95;6.57;;;;;;;;;;6110936;23;20020;-77
2022/10/23 01:22:56;;;;;;;7.50;6.57;;;;;;;;;;6113772;23;20085;-78
2022/10/23 01:25:41;;;;;;;8.77;5.80;;;;;;;;;;6112973;23;20006;-78
2022/10/23 01:28:14;;;;;;;10.13;5.75;;;;;;;;;;6113225;23;20006;-78
2022/10/23 01:30:42;;;;;;;6.07;4.95;;;;;;;;;;6112330;23;20014;-77
2022/10/23 01:33:12;;;;;;;7.57;5.40;;;;;;;;;;6111028;23;20149;-78
2022/10/23 01:36:00;;;;;;;5.78;4.43;;;;;;;;;;6112226;23;20025;-77
2022/10/23 01:38:39;;;;;;;7.50;4.82;;;;;;;;;;6113145;23;20002;-78
2022/10/23 01:41:20;;;;;;;6.00;4.55;;;;;;;;;;6112902;23;20006;-78
2022/10/23 01:43:46;;;;;;;7.07;4.90;;;;;;;;;;6112402;23;20090;-77
2022/10/23 01:46:14;;;;;;;7.72;4.75;;;;;;;;;;6111313;23;20085;-77
2022/10/23 01:48:42;;;;;;;7.03;4.57;;;;;;;;;;6112532;23;20017;-77
2022/10/23 01:51:09;;;;;;;6.45;5.05;;;;;;;;;;6112903;23;20013;-79
2022/10/23 01:53:40;;;;;;;6.80;4.60;;;;;;;;;;6112477;23;20012;-77
2022/10/23 01:56:08;;;;;;;7.65;4.38;;;;;;;;;;6112988;23;20049;-77
2022/10/23 01:58:35;;;;;;;6.60;4.82;;;;;;;;;;6112996;23;20002;-77
2022/10/23 02:01:03;;;;;;;7.43;5.20;;;;;;;;;;6113050;23;20014;-77
2022/10/23 02:03:31;;;;;;;7.78;4.97;;;;;;;;;;6115411;23;20006;-77
2022/10/23 02:05:57;;;;;;;5.57;4.35;;;;;;;;;;6115548;23;20002;-77
2022/10/23 02:08:24;;;;;;;5.80;4.43;;;;;;;;;;6115639;23;19998;-76
2022/10/23 02:10:50;;;;;;;6.32;4.45;;;;;;;;;;6115609;23;20006;-77
2022/10/23 02:13:46;;;;;;;4.90;4.18;;;;;;;;;;6115495;23;19998;-77
2022/10/23 02:16:12;;;;;;;5.25;3.90;;;;;;;;;;6090301;23;20427;-77
2022/10/23 02:18:54;;;;;;;7.97;4.50;;;;;;;;;;6089567;23;20510;-76
2022/10/23 02:21:28;;;;;;;5.97;4.70;;;;;;;;;;6116370;23;20600;-77
2022/10/23 02:24:13;;;;;;;6.07;4.35;;;;;;;;;;6113912;23;20005;-76
2022/10/23 02:26:41;;;;;;;7.65;5.15;;;;;;;;;;6115587;23;19998;-76
2022/10/23 02:29:07;;;;;;;8.98;4.82;;;;;;;;;;6114484;23;20006;-77
2022/10/23 02:31:33;;;;;;;6.45;4.63;;;;;;;;;;6113132;23;20382;-76
2022/10/23 02:33:59;;;;;;;5.28;4.25;;;;;;;;;;6110127;23;20010;-77
2022/10/23 02:36:26;;;;;;;6.32;4.10;;;;;;;;;;6112367;23;20749;-78
2022/10/23 02:38:52;;;;;;;7.95;4.57;;;;;;;;;;6111898;23;20650;-77
2022/10/23 02:41:31;;;;;;;8.73;4.57;;;;;;;;;;6109889;23;20806;-77
2022/10/23 02:44:05;;;;;;;5.65;4.40;;;;;;;;;;6110958;23;20009;-77
2022/10/23 02:46:45;;;;;;;5.38;4.45;;;;;;;;;;6113344;23;20435;-76
2022/10/23 02:49:15;;;;;;;8.52;4.93;;;;;;;;;;6114069;23;20006;-77
2022/10/23 02:51:44;;;;;;;6.95;5.75;;;;;;;;;;6114723;23;20101;-78
2022/10/23 02:54:20;;;;;;;5.90;4.57;;;;;;;;;;6114084;23;20006;-77
2022/10/23 02:56:52;;;;;;;6.15;4.85;;;;;;;;;;6111674;23;20006;-76
2022/10/23 02:59:26;;;;;;;8.73;5.28;;;;;;;;;;6114169;23;20072;-77
2022/10/23 03:01:58;;;;;;;7.53;5.20;;;;;;;;;;6114632;23;20006;-78
2022/10/23 03:04:25;;;;;;;10.52;4.93;;;;;;;;;;6114604;23;20597;-76
2022/10/23 03:06:52;;;;;;;5.45;4.55;;;;;;;;;;6111651;23;20002;-77
2022/10/23 03:09:18;;;;;;;5.15;4.28;;;;;;;;;;6088049;23;20018;-76
2022/10/23 03:11:44;;;;;;;5.82;4.63;;;;;;;;;;6114794;23;20002;-77
2022/10/23 03:14:14;;;;;;;7.88;4.50;;;;;;;;;;6114681;23;20040;-77
2022/10/23 03:16:40;;;;;;;6.25;4.68;;;;;;;;;;6085978;23;20013;-76
2022/10/23 03:19:06;;;;;;;6.63;4.32;;;;;;;;;;6111407;23;20025;-76
2022/10/23 03:21:32;;;;;;;9.68;5.40;;;;;;;;;;6112066;23;20001;-77
2022/10/23 03:23:58;;;;;;;9.55;5.40;;;;;;;;;;6111366;23;20008;-77
2022/10/23 03:26:25;;;;;;;7.32;4.93;;;;;;;;;;6110709;23;19998;-77
2022/10/23 03:28:51;;;;;;;7.28;4.95;;;;;;;;;;6111241;23;20009;-77
2022/10/23 03:31:17;;;;;;;7.07;4.68;;;;;;;;;;6110475;23;20029;-77
2022/10/23 03:33:43;;;;;;;5.63;4.47;;;;;;;;;;6114010;23;20009;-76
2022/10/23 03:36:09;;;;;;;5.82;3.92;;;;;;;;;;6087575;23;20006;-77
2022/10/23 03:38:36;;;;;;;7.07;4.60;;;;;;;;;;6113585;23;20006;-77
2022/10/23 03:41:02;;;;;;;8.40;4.47;;;;;;;;;;6114383;23;20030;-76
2022/10/23 03:43:28;;;;;;;6.40;4.70;;;;;;;;;;6114031;23;20551;-76
2022/10/23 03:45:55;;;;;;;7.57;4.95;;;;;;;;;;6111180;23;20033;-76
2022/10/23 03:48:23;;;;;;;6.47;5.25;;;;;;;;;;6112962;23;20057;-78
2022/10/23 03:50:50;;;;;;;8.07;5.00;;;;;;;;;;6110742;23;20009;-76
2022/10/23 03:53:16;;;;;;;5.97;4.40;;;;;;;;;;6110822;23;20161;-76
2022/10/23 03:55:44;;;;;;;6.25;4.60;;;;;;;;;;6111075;23;20023;-76
2022/10/23 03:58:10;;;;;;;6.63;4.68;;;;;;;;;;6109201;23;20374;-76
2022/10/23 04:00:36;;;;;;;7.45;5.03;;;;;;;;;;6107844;23;20438;-78
2022/10/23 04:03:02;;;;;;;8.02;4.57;;;;;;;;;;6110740;23;20006;-77
2022/10/23 04:05:29;;;;;;;7.45;4.97;;;;;;;;;;6110722;23;20096;-79
2022/10/23 04:07:55;;;;;;;6.10;4.50;;;;;;;;;;6109025;23;19998;-78
2022/10/23 04:10:21;;;;;;;5.45;4.10;;;;;;;;;;6085508;23;20013;-75
2022/10/23 04:12:47;;;;;;;5.90;4.63;;;;;;;;;;6110473;23;20105;-78
2022/10/23 04:15:13;;;;;;;10.07;5.18;;;;;;;;;;6110787;23;20374;-76
2022/10/23 04:17:39;;;;;;;5.85;4.43;;;;;;;;;;6110759;23;20002;-76
2022/10/23 04:20:05;;;;;;;7.65;5.03;;;;;;;;;;6082648;23;20005;-76
2022/10/23 04:22:32;;;;;;;10.98;5.63;;;;;;;;;;6111154;23;20467;-77
2022/10/23 04:24:58;;;;;;;5.80;4.25;;;;;;;;;;6109959;23;20009;-76
2022/10/23 04:27:24;;;;;;;6.85;4.82;;;;;;;;;;6110301;23;20013;-76
2022/10/23 04:29:50;;;;;;;5.00;4.15;;;;;;;;;;6109109;23;20016;-77
2022/10/23 04:32:16;;;;;;;7.97;4.82;;;;;;;;;;6110350;23;20033;-76
2022/10/23 04:34:43;;;;;;;9.90;5.22;;;;;;;;;;6110825;23;20673;-77
2022/10/23 04:37:09;;;;;;;6.70;4.88;;;;;;;;;;6108068;23;20002;-77
2022/10/23 04:39:35;;;;;;;7.18;5.10;;;;;;;;;;6110229;23;20061;-77
2022/10/23 04:42:01;;;;;;;9.93;5.30;;;;;;;;;;6110879;23;20006;-77
2022/10/23 04:44:27;;;;;;;9.13;6.13;;;;;;;;;;6110811;23;20028;-76
2022/10/23 04:46:53;;;;;;;8.63;5.85;;;;;;;;;;6108557;23;20014;-77
2022/10/23 04:49:20;;;;;;;10.27;5.30;;;;;;;;;;6110091;23;20002;-76
2022/10/23 04:51:46;;;;;;;9.30;6.20;;;;;;;;;;6110658;23;20006;-76
2022/10/23 04:54:12;;;;;;;7.18;5.07;;;;;;;;;;6110161;23;20006;-76
2022/10/23 04:56:38;;;;;;;7.53;5.07;;;;;;;;;;6109792;23;20016;-75
2022/10/23 04:59:04;;;;;;;8.98;5.20;;;;;;;;;;6110365;23;20093;-76
2022/10/23 05:01:30;;;;;;;6.47;5.00;;;;;;;;;;6106147;23;20060;-76
2022/10/23 05:03:57;;;;;;;7.20;4.50;;;;;;;;;;6110358;23;20433;-76
2022/10/23 05:06:23;;;;;;;7.20;5.10;;;;;;;;;;6109664;23;20006;-76
2022/10/23 05:08:49;;;;;;;9.43;5.63;;;;;;;;;;6110334;23;20643;-76
2022/10/23 05:11:15;;;;;;;8.75;5.40;;;;;;;;;;6110276;23;20331;-77
2022/10/23 05:13:41;;;;;;;8.57;5.20;;;;;;;;;;6110391;23;20006;-76
2022/10/23 05:16:08;;;;;;;7.55;5.50;;;;;;;;;;6107661;23;20010;-76
2022/10/23 05:18:45;;;;;;;6.35;5.30;;;;;;;;;;6109768;23;20483;-77
2022/10/23 05:21:24;;;;;;;10.25;5.00;;;;;;;;;;6109568;23;20092;-77
2022/10/23 05:23:51;;;;;;;7.00;5.05;;;;;;;;;;6110748;23;20024;-77
2022/10/23 05:26:17;;;;;;;8.32;5.82;;;;;;;;;;6107462;23;19998;-76
2022/10/23 05:28:43;;;;;;;6.22;5.13;;;;;;;;;;6109527;23;20069;-76
2022/10/23 05:31:09;;;;;;;12.40;5.72;;;;;;;;;;6110170;23;20022;-76
2022/10/23 05:33:36;;;;;;;8.38;5.57;;;;;;;;;;6110061;23;20006;-77
2022/10/23 05:36:02;;;;;;;7.85;5.70;;;;;;;;;;6109795;23;20384;-76
2022/10/23 05:38:29;;;;;;;9.02;5.93;;;;;;;;;;6108101;23;20057;-76
2022/10/23 05:40:56;;;;;;;11.98;5.43;;;;;;;;;;6110317;23;20499;-76
2022/10/23 05:43:22;;;;;;;8.75;6.05;;;;;;;;;;6110457;23;20555;-77
2022/10/23 05:45:48;;;;;;;7.25;5.63;;;;;;;;;;6107386;23;20610;-76
2022/10/23 05:48:15;;;;;;;9.02;5.57;;;;;;;;;;6109758;23;20005;-76
2022/10/23 05:50:41;;;;;;;7.88;5.38;;;;;;;;;;6109679;23;20010;-76
2022/10/23 05:53:09;;;;;;;8.45;5.70;;;;;;;;;;6110258;23;20046;-76
2022/10/23 05:55:35;;;;;;;10.60;6.05;;;;;;;;;;6109604;23;20024;-76
2022/10/23 05:58:02;;;;;;;8.65;6.03;;;;;;;;;;6109671;23;20413;-76
2022/10/23 06:00:28;;;;;;;10.73;6.47;;;;;;;;;;6104908;23;20072;-76
2022/10/23 06:02:54;;;;;;;11.80;6.05;;;;;;;;;;6110921;23;20006;-77
2022/10/23 06:05:20;;;;;;;7.30;5.88;;;;;;;;;;6109697;23;20017;-75
2022/10/23 06:07:46;;;;;;;8.57;6.05;;;;;;;;;;6110077;23;20088;-76
2022/10/23 06:10:13;;;;;;;10.90;6.68;;;;;;;;;;6084118;23;20072;-76
2022/10/23 06:12:39;;;;;;;10.15;6.25;;;;;;;;;;6107949;23;20088;-77
2022/10/23 06:15:05;;;;;;;8.43;6.10;;;;;;;;;;6109546;23;20009;-76
2022/10/23 06:17:31;;;;;;;7.85;5.63;;;;;;;;;;6109739;23;20002;-77
2022/10/23 06:20:01;;;;;;;8.50;6.28;;;;;;;;;;6109535;23;20041;-77
2022/10/23 06:22:28;;;;;;;8.25;6.35;;;;;;;;;;6110037;23;20009;-76
2022/10/23 06:24:54;;;;;;;7.82;6.43;;;;;;;;;;6107164;23;20002;-77
2022/10/23 06:27:20;;;;;;;8.77;5.57;;;;;;;;;;6109319;23;20002;-77
2022/10/23 06:29:46;;;;;;;6.85;5.95;;;;;;;;;;6110022;23;20010;-76
2022/10/23 06:32:12;;;;;;;8.57;6.40;;;;;;;;;;6109550;23;20097;-76
2022/10/23 06:34:39;;;;;;;8.98;5.85;;;;;;;;;;6109217;23;20006;-78
2022/10/23 06:37:05;;;;;;;9.82;6.22;;;;;;;;;;6107341;23;20008;-77
2022/10/23 06:39:31;;;;;;;7.32;5.82;;;;;;;;;;6109762;23;20677;-76
2022/10/23 06:41:57;;;;;;;7.03;5.57;;;;;;;;;;6109838;23;20073;-78
2022/10/23 06:44:24;;;;;;;8.93;6.25;;;;;;;;;;6110102;23;20010;-77
2022/10/23 06:46:50;;;;;;;8.50;5.88;;;;;;;;;;6107607;23;20006;-76
2022/10/23 06:49:16;;;;;;;9.80;6.20;;;;;;;;;;6108885;23;20044;-76
2022/10/23 06:51:43;;;;;;;13.95;6.35;;;;;;;;;;6110374;23;20392;-76
2022/10/23 06:54:10;;;;;;;7.60;6.22;;;;;;;;;;6109422;23;20487;-77
2022/10/23 06:56:36;;;;;;;8.05;6.15;;;;;;;;;;6083577;23;20053;-77
2022/10/23 06:59:02;;;;;;;10.52;6.97;;;;;;;;;;6109536;23;20431;-77
2022/10/23 07:01:29;;;;;;;9.77;6.57;;;;;;;;;;6105530;23;20005;-76
2022/10/23 07:03:55;;;;;;;11.18;6.28;;;;;;;;;;6083877;23;19998;-76
2022/10/23 07:06:21;;;;;;;18.73;6.88;;;;;;;;;;6111680;23;20010;-77
2022/10/23 07:08:48;;;;;;;8.30;6.75;;;;;;;;;;6111964;23;20081;-76
2022/10/23 07:11:14;;;;;;;8.50;5.78;;;;;;;;;;6112212;23;19998;-77
2022/10/23 07:13:41;;;;;;;7.28;5.82;;;;;;;;;;6110249;23;20036;-76
2022/10/23 07:16:11;;;;;;;5.78;5.18;;;;;;;;;;6110642;23;20010;-77
2022/10/23 07:18:38;;;;;;;15.25;6.28;;;;;;;;;;6111778;23;20006;-77
2022/10/23 07:21:04;;;;;;;9.35;5.75;;;;;;;;;;6110671;23;20570;-77
2022/10/23 07:23:30;;;;;;;7.38;6.15;;;;;;;;;;6108858;23;20006;-77
2022/10/23 07:26:02;;;;;;;7.47;5.80;;;;;;;;;;6111930;23;20002;-77
2022/10/23 07:28:28;;;;;;;6.80;6.03;;;;;;;;;;6112432;23;20141;-77
2022/10/23 07:31:01;;;;;;;7.30;5.60;;;;;;;;;;6109821;23;20068;-77
2022/10/23 07:33:27;;;;;;;7.47;5.95;;;;;;;;;;6088244;23;20068;-77
2022/10/23 07:35:54;;;;;;;8.77;6.00;;;;;;;;;;6112595;23;20010;-77
2022/10/23 07:38:20;;;;;;;10.88;7.10;;;;;;;;;;6110504;23;20025;-77
2022/10/23 07:40:46;;;;;;;8.07;7.25;;;;;;;;;;6112074;23;20031;-77
2022/10/23 07:43:12;;;;;;;11.27;8.00;;;;;;;;;;6112432;23;19998;-77
2022/10/23 07:45:38;;;;;;;10.15;8.23;;;;;;;;;;6111290;23;20034;-77
2022/10/23 07:48:05;;;;;;;12.20;8.52;;;;;;;;;;6112689;23;20008;-77
2022/10/23 07:50:31;;;;;;;12.25;8.05;;;;;;;;;;6112456;23;20017;-77
2022/10/23 07:52:57;;;;;;;14.57;9.60;;;;;;;;;;6112045;23;20033;-77
2022/10/23 07:55:23;;;;;;;16.42;11.02;;;;;;;;;;6112914;23;20069;-77
2022/10/23 07:57:49;;;;;;;17.25;12.82;;;;;;;;;;6113282;23;20008;-77
2022/10/23 08:00:16;;;;;;;21.25;12.65;;;;;;;;;;6113806;23;20018;-77
2022/10/23 08:02:42;;;;;;;18.33;12.07;;;;;;;;;;6113047;23;20024;-77
2022/10/23 08:05:08;;;;;;;17.50;12.00;;;;;;;;;;6112553;23;20095;-77
2022/10/23 08:07:34;;;;;;;14.07;11.20;;;;;;;;;;6086795;23;20012;-78
2022/10/23 08:10:00;;;;;;;26.67;11.18;;;;;;;;;;6113695;23;20085;-77
2022/10/23 08:12:26;;;;;;;14.35;10.10;;;;;;;;;;6114645;23;20006;-77
2022/10/23 08:14:53;;;;;;;17.52;9.70;;;;;;;;;;6113453;23;20056;-77
2022/10/23 08:17:19;;;;;;;14.18;10.00;;;;;;;;;;6112787;23;20005;-77
2022/10/23 08:19:47;;;;;;;11.45;8.88;;;;;;;;;;6111219;23;20009;-77
2022/10/23 08:22:14;;;;;;;12.90;8.82;;;;;;;;;;6113437;23;20032;-77
2022/10/23 08:24:40;;;;;;;11.85;8.60;;;;;;;;;;6112671;23;20022;-77
2022/10/23 08:27:06;;;;;;;12.68;8.40;;;;;;;;;;6113970;23;20355;-77
2022/10/23 08:29:32;;;;;;;10.63;8.98;;;;;;;;;;6112914;23;20005;-77
2022/10/23 08:31:58;;;;;;;10.40;8.05;;;;;;;;;;6111289;23;20006;-77
2022/10/23 08:34:24;;;;;;;13.18;8.68;;;;;;;;;;6113784;23;20053;-73
2022/10/23 08:36:51;;;;;;;9.27;8.32;;;;;;;;;;6087080;23;20014;-76
2022/10/23 08:39:17;;;;;;;15.32;9.07;;;;;;;;;;6113446;23;20466;-74
2022/10/23 08:41:47;;;;;;;14.30;10.02;;;;;;;;;;6114723;23;20597;-73
2022/10/23 08:44:13;;;;;;;12.52;8.95;;;;;;;;;;6111167;23;20010;-74
2022/10/23 08:46:44;;;;;;;12.60;9.27;;;;;;;;;;6112790;23;20036;-73
2022/10/23 08:49:10;;;;;;;10.48;8.68;;;;;;;;;;6113432;23;20010;-73
2022/10/23 08:51:44;;;;;;;13.15;8.57;;;;;;;;;;6113692;23;20057;-74
2022/10/23 08:54:22;;;;;;;9.65;7.93;;;;;;;;;;6085662;23;20002;-74
2022/10/23 08:56:54;;;;;;;12.05;8.07;;;;;;;;;;6112771;23;20085;-74
2022/10/23 08:59:21;;;;;;;;;;;;;;;;;;6113317;23;20041;-73
2022/10/23 09:02:10;;;;;;;12.18;8.32;;;;;;;;;;6113250;23;20359;-73
2022/10/23 09:04:36;;;;;;;11.20;7.15;;;;;;;;;;6108736;23;20017;-75
2022/10/23 09:07:08;;;;;;;9.50;7.22;;;;;;;;;;6108229;23;20030;-76
2022/10/23 09:09:38;;;;;;;9.70;8.00;;;;;;;;;;6113239;23;20499;-74
2022/10/23 09:12:11;;;;;;;10.38;7.43;;;;;;;;;;6112358;23;20002;-73
2022/10/23 09:14:56;;;;;;;9.38;7.95;;;;;;;;;;6111905;23;19998;-73
2022/10/23 09:17:31;;;;;;;18.83;8.05;;;;;;;;;;6112809;23;20540;-76
2022/10/23 09:20:20;;;;;;;12.15;8.43;;;;;;;;;;6112548;23;20452;-75
2022/10/23 09:22:47;;;;;;;9.45;7.90;;;;;;;;;;6097264;23;20060;-75
2022/10/23 09:25:24;;;;;;;9.63;7.07;;;;;;;;;;6113601;23;20641;-76
2022/10/23 09:27:52;;;;;;;10.00;7.18;;;;;;;;;;6086751;23;20368;-77
2022/10/23 09:30:34;;;;;;;8.60;7.22;;;;;;;;;;6112129;23;20012;-77
2022/10/23 09:33:01;;;;;;;8.52;6.70;;;;;;;;;;6112100;23;20662;-75
2022/10/23 09:35:29;;;;;;;9.63;7.57;;;;;;;;;;6112875;23;20013;-75
2022/10/23 09:37:56;;;;;;;8.48;7.40;;;;;;;;;;6110541;23;20008;-75
2022/10/23 09:40:37;;;;;;;7.70;6.90;;;;;;;;;;6114255;23;20041;-75
2022/10/23 09:43:12;;;;;;;8.38;6.85;;;;;;;;;;6113251;23;20057;-75
2022/10/23 09:45:41;;;;;;;9.70;7.15;;;;;;;;;;6112732;23;20002;-75
2022/10/23 09:48:12;;;;;;;8.40;6.35;;;;;;;;;;6110788;23;20037;-75
2022/10/23 09:50:42;;;;;;;7.18;6.32;;;;;;;;;;6112796;23;20368;-75
2022/10/23 09:53:14;;;;;;;11.95;6.75;;;;;;;;;;6113056;23;20037;-76
2022/10/23 09:55:41;;;;;;;9.10;7.13;;;;;;;;;;6111588;23;20024;-79
2022/10/23 09:58:18;;;;;;;10.13;6.88;;;;;;;;;;6112433;23;20435;-78
2022/10/23 10:00:48;;;;;;;8.13;6.68;;;;;;;;;;6113341;23;20025;-80
2022/10/23 10:03:18;;;;;;;10.43;6.60;;;;;;;;;;6085523;23;20084;-78
2022/10/23 10:05:53;;;;;;;7.72;6.35;;;;;;;;;;6112706;23;20435;-78
2022/10/23 10:08:27;;;;;;;7.72;5.95;;;;;;;;;;6112885;23;19998;-77
2022/10/23 10:11:13;;;;;;;11.13;7.07;;;;;;;;;;6112576;23;20002;-77
2022/10/23 10:13:42;;;;;;;9.50;7.00;;;;;;;;;;6054202;23;20085;-79
2022/10/23 10:16:14;;;;;;;10.85;7.22;;;;;;;;;;6110672;23;20065;-75
2022/10/23 10:34:35;;;;;;;12.48;7.93;;;;;;;;;;5107678;28;230382;-89
2022/10/23 10:37:01;;;;;;;;;;;;;;;;;;5116621;28;20039;-90
2022/10/23 10:39:41;;;;;;;7.70;6.90;;;;;;;;;;5113968;28;20748;-87
2022/10/23 10:42:08;;;;;;;10.55;7.65;;;;;;;;;;5115726;28;20015;-90
2022/10/23 10:44:50;;;;;;;10.20;8.45;;;;;;;;;;5114579;28;20030;-87
2022/10/23 10:47:26;;;;;;;17.60;9.82;;;;;;;;;;5121365;28;20062;-92
2022/10/23 10:50:01;;;;;;;14.25;8.73;;;;;;;;;;5115700;28;20020;-87
2022/10/23 10:52:33;;;;;;;10.68;8.25;;;;;;;;;;5111766;28;20057;-85
2022/10/23 10:55:03;;;;;;;21.85;9.73;;;;;;;;;;5111728;28;20020;-84
2022/10/23 10:57:31;;;;;;;24.20;9.73;;;;;;;;;;5111710;28;20636;-84
2022/10/23 11:00:01;;;;;;;10.15;7.95;;;;;;;;;;5107454;28;20042;-86
2022/10/23 11:02:29;;;;;;;12.00;8.13;;;;;;;;;;5111393;28;20019;-86
2022/10/23 11:05:02;;;;;;;8.95;8.05;;;;;;;;;;5113872;27;20507;-86
2022/10/23 11:07:33;;;;;;;9.82;8.18;;;;;;;;;;5115741;28;20099;-88
2022/10/23 11:10:00;;;;;;;10.02;7.78;;;;;;;;;;5113578;28;20508;-88
2022/10/23 11:12:26;;;;;;;10.38;8.23;;;;;;;;;;5110655;28;20118;-86
2022/10/23 11:14:53;;;;;;;9.13;7.90;;;;;;;;;;5110451;28;20043;-88
2022/10/23 11:17:37;;;;;;;11.73;8.75;;;;;;;;;;5117493;28;20024;-87
2022/10/23 11:20:08;;;;;;;16.73;8.98;;;;;;;;;;5105399;28;20055;-87
2022/10/23 11:22:34;;;;;;;;;;;;;;;;;;5106838;28;20027;-85
2022/10/23 11:25:04;;;;;;;8.70;7.57;;;;;;;;;;5111568;28;19904;-90
2022/10/23 11:27:48;;;;;;;10.05;8.05;;;;;;;;;;5124006;28;20024;-87
2022/10/23 11:30:17;;;;;;;10.18;8.18;;;;;;;;;;5112838;28;20027;-88
2022/10/23 11:32:48;;;;;;;8.60;7.70;;;;;;;;;;5112670;27;20038;-90
2022/10/23 11:35:33;;;;;;;8.80;7.88;;;;;;;;;;5119912;27;20027;-88
2022/10/23 11:38:17;;;;;;;15.85;8.90;;;;;;;;;;5124813;27;20019;-90
2022/10/23 11:41:03;;;;;;;10.13;7.95;;;;;;;;;;5117516;27;20489;-89
2022/10/23 11:43:30;;;;;;;10.82;8.32;;;;;;;;;;5102579;28;20023;-91
2022/10/23 11:45:56;;;;;;;11.13;8.68;;;;;;;;;;5106654;27;20110;-88
2022/10/23 11:48:22;;;;;;;9.82;7.53;;;;;;;;;;5109810;27;20046;-89
2022/10/23 11:50:56;;;;;;;10.95;8.65;;;;;;;;;;5108594;27;20016;-89
2022/10/23 11:53:31;;;;;;;11.48;8.60;;;;;;;;;;5108327;27;20469;-89
2022/10/23 11:56:01;;;;;;;10.13;7.88;;;;;;;;;;5107335;27;20019;-89
2022/10/23 11:58:47;;;;;;;8.52;7.57;;;;;;;;;;5120870;27;20023;-89
2022/10/23 12:01:23;;;;;;;8.65;7.05;;;;;;;;;;5096220;27;20469;-88
2022/10/23 12:04:09;;;;;;;8.65;7.53;;;;;;;;;;5102781;28;20026;-87
2022/10/23 12:06:40;;;;;;;9.65;7.85;;;;;;;;;;5097665;28;20114;-88
2022/10/23 12:09:08;;;;;;;8.57;7.63;;;;;;;;;;5118715;27;20062;-87
2022/10/23 12:11:48;;;;;;;9.50;7.68;;;;;;;;;;5099161;28;20042;-88
2022/10/23 12:14:32;;;;;;;11.18;8.45;;;;;;;;;;5106524;27;20119;-88
2022/10/23 12:16:58;;;;;;;11.50;8.32;;;;;;;;;;5095541;27;20019;-88
2022/10/23 12:19:26;;;;;;;9.60;8.30;;;;;;;;;;5102683;27;20076;-88
2022/10/23 12:22:01;;;;;;;9.50;8.40;;;;;;;;;;5096038;28;20020;-88
2022/10/23 12:24:33;;;;;;;9.52;7.88;;;;;;;;;;5100098;27;20120;-88
2022/10/23 12:27:12;;;;;;;10.02;8.10;;;;;;;;;;5104879;27;20039;-88
2022/10/23 12:29:39;;;;;;;10.77;7.38;;;;;;;;;;5099576;27;20031;-88
2022/10/23 12:32:24;;;;;;;11.15;8.02;;;;;;;;;;5102462;27;20023;-86
2022/10/23 12:34:50;;;;;;;11.90;8.07;;;;;;;;;;5096096;27;20122;-87
2022/10/23 12:37:36;;;;;;;9.82;7.55;;;;;;;;;;5097714;27;20482;-86
2022/10/23 12:40:06;;;;;;;9.75;8.15;;;;;;;;;;5096314;27;20119;-87
2022/10/23 12:42:32;;;;;;;9.27;8.20;;;;;;;;;;5099135;27;20034;-85
2022/10/23 12:45:14;;;;;;;10.32;8.02;;;;;;;;;;5092321;27;20029;-86
2022/10/23 12:47:42;;;;;;;9.70;8.15;;;;;;;;;;5100994;27;20037;-85
2022/10/23 12:50:18;;;;;;;9.25;8.23;;;;;;;;;;5094638;28;20134;-86
2022/10/23 12:53:05;;;;;;;10.18;8.05;;;;;;;;;;5095784;28;20145;-85
2022/10/23 12:55:47;;;;;;;8.82;7.78;;;;;;;;;;5099360;27;20623;-86
2022/10/23 12:58:21;;;;;;;9.05;7.47;;;;;;;;;;5094980;28;20146;-87
2022/10/23 13:00:51;;;;;;;9.77;7.72;;;;;;;;;;5101553;27;20503;-86
2022/10/23 13:03:20;;;;;;;11.63;7.57;;;;;;;;;;5097283;27;20048;-86
2022/10/23 13:05:46;;;;;;;9.85;7.95;;;;;;;;;;5098028;27;20054;-87
2022/10/23 13:08:13;;;;;;;10.45;7.95;;;;;;;;;;5101137;27;20038;-87
2022/10/23 13:10:39;;;;;;;8.57;7.50;;;;;;;;;;5091636;27;20075;-88
2022/10/23 13:13:06;;;;;;;8.75;7.70;;;;;;;;;;5101605;27;20036;-85
2022/10/23 13:15:40;;;;;;;8.50;7.65;;;;;;;;;;5099032;27;20027;-86
2022/10/23 13:18:07;;;;;;;11.07;7.70;;;;;;;;;;5100988;27;20019;-87
2022/10/23 13:20:36;;;;;;;10.75;7.38;;;;;;;;;;5098959;28;20191;-89
2022/10/23 13:23:17;;;;;;;13.88;7.57;;;;;;;;;;5100602;27;20019;-88
2022/10/23 13:25:52;;;;;;;9.93;7.78;;;;;;;;;;5101988;27;20079;-87
2022/10/23 13:28:23;;;;;;;10.00;7.05;;;;;;;;;;5100000;27;20030;-87
2022/10/23 13:31:00;;;;;;;8.70;7.32;;;;;;;;;;5095542;28;20020;-88
2022/10/23 13:33:30;;;;;;;9.00;7.20;;;;;;;;;;5102521;27;20062;-87
2022/10/23 13:35:57;;;;;;;9.25;7.35;;;;;;;;;;5108282;27;20576;-87
2022/10/23 13:38:30;;;;;;;8.77;7.07;;;;;;;;;;5099308;27;20076;-86
2022/10/23 13:41:00;;;;;;;8.30;6.68;;;;;;;;;;5099751;27;20042;-87
2022/10/23 13:43:29;;;;;;;7.88;7.07;;;;;;;;;;5091686;27;20185;-87
2022/10/23 13:45:55;;;;;;;10.95;7.40;;;;;;;;;;5093005;27;20027;-87
2022/10/23 13:48:22;;;;;;;8.82;7.93;;;;;;;;;;5096277;27;20266;-85
2022/10/23 13:50:48;;;;;;;13.40;7.70;;;;;;;;;;5093450;27;20045;-85
2022/10/23 13:53:14;;;;;;;9.50;7.15;;;;;;;;;;5096285;27;20481;-86
2022/10/23 13:55:42;;;;;;;8.65;7.20;;;;;;;;;;5094241;27;20180;-88
2022/10/23 13:58:09;;;;;;;10.52;7.70;;;;;;;;;;5102842;27;20114;-88
2022/10/23 14:00:35;;;;;;;9.07;7.82;;;;;;;;;;5110570;27;20023;-85
2022/10/23 14:03:02;;;;;;;9.50;8.18;;;;;;;;;;5091710;28;20023;-86
2022/10/23 14:05:29;;;;;;;10.27;8.32;;;;;;;;;;5095689;27;20250;-86
2022/10/23 14:07:55;;;;;;;11.00;7.57;;;;;;;;;;5097467;27;20042;-86
2022/10/23 14:10:22;;;;;;;8.80;7.53;;;;;;;;;;5101424;27;20489;-87
2022/10/23 14:12:53;;;;;;;9.95;7.05;;;;;;;;;;5096766;27;20027;-87
2022/10/23 14:15:20;;;;;;;9.25;7.80;;;;;;;;;;5096404;28;20019;-87
2022/10/23 14:17:46;;;;;;;16.42;9.25;;;;;;;;;;5098711;27;20047;-85
2022/10/23 14:20:12;;;;;;;8.50;7.60;;;;;;;;;;5097119;28;20114;-87
2022/10/23 14:22:38;;;;;;;10.90;7.75;;;;;;;;;;5101647;28;20027;-85
2022/10/23 14:25:05;;;;;;;9.60;8.15;;;;;;;;;;5095391;28;20119;-87
2022/10/23 14:27:31;;;;;;;14.73;8.73;;;;;;;;;;5095819;28;20500;-88
2022/10/23 14:29:58;;;;;;;11.93;8.30;;;;;;;;;;5098414;28;20035;-88
2022/10/23 14:32:24;;;;;;;12.48;8.52;;;;;;;;;;5095522;28;20110;-88
2022/10/23 14:34:52;;;;;;;11.13;8.82;;;;;;;;;;5100759;28;20023;-89
2022/10/23 14:37:18;;;;;;;12.40;8.63;;;;;;;;;;5098319;28;20069;-87
2022/10/23 14:39:45;;;;;;;12.18;8.43;;;;;;;;;;5097755;28;20032;-89
2022/10/23 14:42:12;;;;;;;14.13;8.52;;;;;;;;;;5097114;28;20032;-88
2022/10/23 14:44:38;;;;;;;10.68;7.72;;;;;;;;;;5100647;28;20380;-88
2022/10/23 14:47:04;;;;;;;9.77;8.43;;;;;;;;;;5097352;28;20146;-87
2022/10/23 14:49:30;;;;;;;9.93;8.23;;;;;;;;;;5099086;28;20389;-89
2022/10/23 14:51:57;;;;;;;9.50;8.60;;;;;;;;;;5099099;28;20027;-89
2022/10/23 14:54:23;;;;;;;9.65;8.60;;;;;;;;;;5090023;28;20453;-90
2022/10/23 14:56:49;;;;;;;10.95;9.23;;;;;;;;;;5101719;28;20030;-88
2022/10/23 14:59:15;;;;;;;10.43;8.80;;;;;;;;;;5092328;28;20113;-88
2022/10/23 15:01:42;;;;;;;10.40;8.45;;;;;;;;;;5094357;28;20035;-89
2022/10/23 15:04:09;;;;;;;9.50;8.50;;;;;;;;;;5091874;28;20092;-89
2022/10/23 15:06:35;;;;;;;12.55;8.95;;;;;;;;;;5097409;28;20118;-89